createdAt,value
2023-10-05T00:04:18.492Z,7.60
2023-10-05T00:09:28.891Z,7.70
2023-10-05T00:14:38.932Z,8.90
2023-10-05T00:19:49.650Z,7.40
2023-10-05T00:24:59.284Z,11.10
2023-10-05T00:30:14.185Z,7.50
2023-10-05T00:35:27.896Z,9.90
2023-10-05T00:40:41.240Z,10.30
2023-10-05T00:45:51.943Z,10.20
2023-10-05T00:51:07.667Z,10.50
2023-10-05T00:56:19.643Z,11.10
2023-10-05T01:01:29.495Z,11.10
2023-10-05T01:06:43.873Z,9.20
2023-10-05T01:11:55.830Z,8.60
2023-10-05T01:17:05.728Z,9.60
2023-10-05T01:22:18.240Z,10.90
2023-10-05T01:27:31.411Z,10.40
2023-10-05T01:32:42.583Z,8.10
2023-10-05T01:37:54.864Z,9.10
2023-10-05T01:43:05.511Z,10.50
2023-10-05T01:48:26.910Z,10.20
2023-10-05T01:53:36.874Z,10.60
2023-10-05T01:58:51.877Z,9.90
2023-10-05T02:04:02.508Z,9.90
2023-10-05T02:09:14.277Z,8.30
2023-10-05T02:14:24.205Z,9.20
2023-10-05T02:19:33.878Z,10.70
2023-10-05T02:24:44.118Z,10.70
2023-10-05T02:29:54.929Z,8.00
2023-10-05T02:35:20.128Z,11.20
2023-10-05T02:40:37.275Z,11.50
2023-10-05T02:45:46.969Z,11.10
2023-10-05T02:50:56.823Z,9.70
2023-10-05T02:56:07.377Z,11.70
2023-10-05T03:01:17.890Z,13.70
2023-10-05T03:06:28.859Z,11.00
2023-10-05T03:11:42.578Z,11.30
2023-10-05T03:16:58.283Z,12.30
2023-10-05T03:22:12.595Z,14.10
2023-10-05T03:27:27.537Z,10.40
2023-10-05T03:32:39.153Z,9.20
2023-10-05T03:37:49.041Z,10.70
2023-10-05T03:43:00.336Z,10.70
2023-10-05T03:48:11.786Z,8.70
2023-10-05T03:53:22.867Z,12.10
2023-10-05T03:58:34.570Z,10.10
2023-10-05T04:03:45.334Z,9.50
2023-10-05T04:08:59.404Z,8.10
2023-10-05T04:14:10.128Z,10.70
2023-10-05T04:19:20.050Z,9.00
2023-10-05T04:24:29.969Z,14.70
2023-10-05T04:29:40.162Z,10.30
2023-10-05T04:34:49.961Z,12.50
2023-10-05T04:40:01.208Z,10.70
2023-10-05T04:45:16.030Z,10.40
2023-10-05T04:50:26.702Z,14.20
2023-10-05T04:55:42.826Z,13.20
2023-10-05T05:01:17.106Z,13.40
2023-10-05T05:06:28.777Z,12.50
2023-10-05T05:11:38.981Z,13.80
2023-10-05T05:16:51.325Z,16.50
2023-10-05T05:22:02.060Z,11.10
2023-10-05T05:27:23.061Z,10.30
2023-10-05T05:32:32.945Z,13.10
2023-10-05T05:37:48.573Z,11.40
2023-10-05T05:42:59.648Z,10.60
2023-10-05T05:48:16.115Z,13.40
2023-10-05T05:53:26.076Z,11.60
2023-10-05T05:58:36.797Z,9.90
2023-10-05T06:03:49.037Z,13.00
2023-10-05T06:08:59.458Z,13.00
2023-10-05T06:14:09.716Z,11.90
2023-10-05T06:19:19.423Z,13.00
2023-10-05T06:24:29.202Z,15.10
2023-10-05T06:29:38.760Z,12.10
2023-10-05T06:34:49.517Z,12.20
2023-10-05T06:40:01.314Z,18.30
2023-10-05T06:45:15.125Z,18.20
2023-10-05T06:50:24.956Z,14.90
2023-10-05T06:55:34.810Z,15.20
2023-10-05T07:00:44.355Z,14.70
2023-10-05T07:05:55.655Z,18.90
2023-10-05T07:11:08.375Z,17.40
2023-10-05T07:16:18.585Z,15.30
2023-10-05T07:21:28.500Z,13.60
2023-10-05T07:26:38.571Z,9.70
2023-10-05T07:31:48.287Z,12.00
2023-10-05T07:36:58.857Z,12.10
2023-10-05T07:42:09.881Z,12.50
2023-10-05T07:47:20.712Z,11.70
2023-10-05T07:52:31.876Z,12.30
2023-10-05T07:57:42.095Z,13.90
2023-10-05T08:02:52.625Z,16.70
2023-10-05T08:08:03.635Z,11.40
2023-10-05T08:13:13.697Z,15.70
2023-10-05T08:18:23.837Z,13.70
2023-10-05T08:23:35.280Z,14.90
2023-10-05T08:28:51.721Z,14.10
2023-10-05T08:34:04.785Z,13.90
2023-10-05T08:39:17.532Z,10.60
2023-10-05T08:44:32.161Z,10.60
2023-10-05T08:49:45.390Z,11.10
2023-10-05T08:54:56.901Z,12.20
2023-10-05T09:00:15.986Z,13.10
2023-10-05T09:05:26.077Z,14.20
2023-10-05T09:10:39.352Z,13.10
2023-10-05T09:15:59.138Z,13.20
2023-10-05T09:21:14.384Z,15.20
2023-10-05T09:26:35.614Z,13.90
2023-10-05T09:31:46.184Z,17.40
2023-10-05T09:36:55.989Z,12.20
2023-10-05T09:42:08.698Z,11.40
2023-10-05T09:47:20.318Z,10.30
2023-10-05T09:52:37.115Z,10.80
2023-10-05T09:57:55.599Z,11.80
2023-10-05T10:03:07.921Z,10.50
2023-10-05T10:08:24.851Z,12.10
2023-10-05T10:13:38.987Z,8.00
2023-10-05T10:18:49.556Z,12.00
2023-10-05T10:24:10.381Z,12.80
2023-10-05T10:29:24.672Z,9.50
2023-10-05T10:34:51.926Z,10.20
2023-10-05T10:40:04.664Z,14.50
2023-10-05T10:45:25.000Z,15.60
2023-10-05T10:50:39.132Z,15.00
2023-10-05T10:55:59.614Z,11.00
2023-10-05T11:01:15.534Z,13.20
2023-10-05T11:06:27.533Z,10.90
2023-10-05T11:11:45.054Z,10.50
2023-10-05T11:17:01.436Z,11.40
2023-10-05T11:22:14.435Z,7.40
2023-10-05T11:27:26.542Z,11.50
2023-10-05T11:33:17.792Z,11.60
2023-10-05T11:38:21.305Z,11.60
2023-10-05T11:43:32.252Z,8.50
2023-10-05T11:48:49.529Z,9.40
2023-10-05T11:53:59.919Z,8.70
2023-10-05T11:59:12.070Z,8.20
2023-10-05T12:04:22.533Z,8.80
2023-10-05T12:09:33.825Z,7.30
2023-10-05T12:14:43.912Z,8.80
2023-10-05T12:19:55.880Z,8.10
2023-10-05T12:25:09.123Z,8.30
2023-10-05T12:30:19.476Z,13.30
2023-10-05T12:35:31.001Z,9.30
2023-10-05T12:40:43.522Z,8.10
2023-10-05T12:45:55.296Z,9.30
2023-10-05T12:51:07.566Z,6.10
2023-10-05T12:56:17.626Z,8.40
2023-10-05T13:01:28.778Z,7.60
2023-10-05T13:06:40.280Z,7.20
2023-10-05T13:11:50.505Z,8.40
2023-10-05T13:17:03.580Z,8.00
2023-10-05T13:22:13.724Z,9.70
2023-10-05T13:27:23.468Z,7.20
2023-10-05T13:32:33.649Z,7.20
2023-10-05T13:37:43.984Z,9.20
2023-10-05T13:42:53.692Z,10.20
2023-10-05T13:48:04.322Z,7.80
2023-10-05T13:53:14.089Z,6.00
2023-10-05T13:58:23.960Z,6.50
2023-10-05T14:03:38.014Z,6.30
2023-10-05T14:08:48.293Z,7.50
2023-10-05T14:13:58.252Z,5.80
2023-10-05T14:19:08.386Z,8.50
2023-10-05T14:24:19.376Z,8.30
2023-10-05T14:29:36.702Z,7.40
2023-10-05T14:34:51.514Z,7.10
2023-10-05T14:40:01.614Z,10.10
2023-10-05T14:45:15.922Z,9.40
2023-10-05T14:50:27.750Z,6.20
2023-10-05T14:55:38.488Z,8.20
2023-10-05T15:00:48.329Z,6.60
2023-10-05T15:05:58.063Z,6.30
2023-10-05T15:11:07.866Z,7.90
2023-10-05T15:16:17.860Z,8.10
2023-10-05T15:21:28.680Z,6.90
2023-10-05T15:26:38.715Z,6.50
2023-10-05T15:31:49.331Z,6.40
2023-10-05T15:36:59.013Z,3.90
2023-10-05T15:42:09.202Z,5.30
2023-10-05T15:47:19.694Z,5.50
2023-10-05T15:52:29.865Z,4.70
2023-10-05T15:57:43.206Z,4.30
2023-10-05T16:02:57.241Z,2.60
2023-10-05T16:08:08.964Z,9.30
2023-10-05T16:13:19.281Z,5.90
2023-10-05T16:18:31.340Z,5.50
2023-10-05T16:23:42.122Z,3.60
2023-10-05T16:28:51.965Z,5.40
2023-10-05T16:34:01.967Z,4.10
2023-10-05T16:39:13.143Z,5.80
2023-10-05T16:44:24.449Z,5.90
2023-10-05T16:49:34.850Z,4.80
2023-10-05T16:54:45.373Z,6.30
2023-10-05T16:59:55.243Z,2.80
2023-10-05T17:05:14.661Z,4.20
2023-10-05T17:10:26.012Z,6.70
2023-10-05T17:15:37.079Z,7.30
2023-10-05T17:20:46.869Z,5.10
2023-10-05T17:25:56.921Z,5.30
2023-10-05T17:31:06.897Z,6.20
2023-10-05T17:36:16.702Z,5.50
2023-10-05T17:41:26.404Z,4.40
2023-10-05T17:46:36.262Z,6.50
2023-10-05T17:51:46.393Z,5.30
2023-10-05T17:56:57.819Z,6.10
2023-10-05T18:02:07.987Z,5.30
2023-10-05T18:07:18.723Z,5.80
2023-10-05T18:12:28.757Z,7.20
2023-10-05T18:17:38.924Z,5.30
2023-10-05T18:22:50.096Z,5.70
2023-10-05T18:28:02.672Z,6.90
2023-10-05T18:33:15.077Z,7.60
2023-10-05T18:38:25.045Z,5.10
2023-10-05T18:43:35.318Z,8.30
2023-10-05T18:48:45.244Z,3.00
2023-10-05T18:53:55.116Z,6.00
2023-10-05T18:59:05.927Z,4.50
2023-10-05T19:04:15.975Z,5.40
2023-10-05T19:09:27.126Z,5.30
2023-10-05T19:14:37.295Z,3.60
2023-10-05T19:19:47.435Z,4.20
2023-10-05T19:24:57.540Z,2.60
2023-10-05T19:30:12.200Z,5.10
2023-10-05T19:35:24.663Z,4.80
2023-10-05T19:40:34.623Z,4.00
2023-10-05T19:45:44.623Z,5.00
2023-10-05T19:50:54.645Z,3.90
2023-10-05T19:56:04.889Z,2.90
2023-10-05T20:01:18.152Z,3.20
2023-10-05T20:06:30.178Z,3.80
2023-10-05T20:11:41.319Z,2.30
2023-10-05T20:16:51.288Z,4.50
2023-10-05T20:22:01.784Z,4.40
2023-10-05T20:27:17.320Z,3.30
2023-10-05T20:32:27.383Z,2.80
2023-10-05T20:37:37.071Z,2.60
2023-10-05T20:42:46.890Z,3.20
2023-10-05T20:47:56.973Z,5.00
2023-10-05T20:53:07.448Z,3.60
2023-10-05T20:58:18.196Z,4.10
2023-10-05T21:03:28.012Z,3.20
2023-10-05T21:08:41.935Z,2.70
2023-10-05T21:13:51.685Z,2.80
2023-10-05T21:19:02.002Z,2.80
2023-10-05T21:24:14.130Z,3.70
2023-10-05T21:29:23.743Z,3.70
2023-10-05T21:34:35.489Z,4.80
2023-10-05T21:39:45.502Z,4.20
2023-10-05T21:45:12.634Z,5.30
2023-10-05T21:50:22.854Z,5.00
2023-10-05T21:55:32.852Z,3.10
2023-10-05T22:00:54.546Z,4.10
2023-10-05T22:06:05.790Z,3.90
2023-10-05T22:11:15.799Z,2.50
2023-10-05T22:16:25.828Z,2.40
2023-10-05T22:21:35.860Z,5.80
2023-10-05T22:26:45.791Z,5.30
2023-10-05T22:31:55.477Z,3.00
2023-10-05T22:37:05.666Z,2.80
2023-10-05T22:42:15.847Z,3.30
2023-10-05T22:47:26.400Z,3.20
2023-10-05T22:52:36.414Z,3.50
2023-10-05T22:57:46.136Z,2.80
2023-10-05T23:02:56.106Z,2.80
2023-10-05T23:08:06.211Z,4.40
2023-10-05T23:13:16.743Z,4.50
2023-10-05T23:18:27.454Z,4.60
2023-10-05T23:23:39.437Z,4.60
2023-10-05T23:28:49.742Z,3.80
2023-10-05T23:33:59.982Z,4.30
2023-10-05T23:39:11.529Z,3.80
2023-10-05T23:44:21.972Z,3.20
2023-10-05T23:49:33.766Z,5.10
2023-10-05T23:54:43.817Z,7.30
2023-10-05T23:59:55.148Z,6.70
